sensor_id;sensor_type;location;lat;lon;timestamp;P1;durP1;ratioP1;P2;durP2;ratioP2
2390;SDS011;22957;50.824;4.360;2023-02-15T00:01:50;49.63;;;23.77;;
2390;SDS011;22957;50.824;4.360;2023-02-15T00:04:18;48.50;;;23.30;;
2390;SDS011;22957;50.824;4.360;2023-02-15T00:06:45;52.10;;;25.10;;
2390;SDS011;22957;50.824;4.360;2023-02-15T00:09:11;45.17;;;22.37;;
2390;SDS011;22957;50.824;4.360;2023-02-15T00:11:38;43.63;;;22.60;;
2390;SDS011;22957;50.824;4.360;2023-02-15T00:14:16;48.90;;;26.73;;
2390;SDS011;22957;50.824;4.360;2023-02-15T00:16:44;51.00;;;25.20;;
2390;SDS011;22957;50.824;4.360;2023-02-15T00:19:11;42.33;;;23.80;;
2390;SDS011;22957;50.824;4.360;2023-02-15T00:21:38;46.77;;;23.37;;
2390;SDS011;22957;50.824;4.360;2023-02-15T00:24:05;56.13;;;27.30;;
2390;SDS011;22957;50.824;4.360;2023-02-15T00:26:32;46.23;;;26.30;;
2390;SDS011;22957;50.824;4.360;2023-02-15T00:28:58;44.90;;;25.93;;
2390;SDS011;22957;50.824;4.360;2023-02-15T00:31:24;52.50;;;25.70;;
2390;SDS011;22957;50.824;4.360;2023-02-15T00:33:50;53.87;;;25.10;;
2390;SDS011;22957;50.824;4.360;2023-02-15T00:36:16;58.80;;;28.10;;
2390;SDS011;22957;50.824;4.360;2023-02-15T00:38:42;52.60;;;26.23;;
2390;SDS011;22957;50.824;4.360;2023-02-15T00:41:08;53.43;;;28.07;;
2390;SDS011;22957;50.824;4.360;2023-02-15T00:43:34;50.77;;;26.87;;
2390;SDS011;22957;50.824;4.360;2023-02-15T00:46:01;62.90;;;28.63;;
2390;SDS011;22957;50.824;4.360;2023-02-15T00:48:28;53.00;;;26.17;;
2390;SDS011;22957;50.824;4.360;2023-02-15T00:50:56;53.00;;;27.37;;
2390;SDS011;22957;50.824;4.360;2023-02-15T00:53:25;45.73;;;23.50;;
2390;SDS011;22957;50.824;4.360;2023-02-15T00:55:51;44.80;;;22.53;;
2390;SDS011;22957;50.824;4.360;2023-02-15T00:58:18;61.60;;;28.53;;
2390;SDS011;22957;50.824;4.360;2023-02-15T01:00:44;49.63;;;23.70;;
2390;SDS011;22957;50.824;4.360;2023-02-15T01:03:11;52.97;;;25.53;;
2390;SDS011;22957;50.824;4.360;2023-02-15T01:05:38;53.97;;;26.23;;
2390;SDS011;22957;50.824;4.360;2023-02-15T01:08:04;50.17;;;24.37;;
2390;SDS011;22957;50.824;4.360;2023-02-15T01:10:30;56.27;;;27.50;;
2390;SDS011;22957;50.824;4.360;2023-02-15T01:12:56;44.63;;;22.00;;
2390;SDS011;22957;50.824;4.360;2023-02-15T01:15:22;53.07;;;26.50;;
2390;SDS011;22957;50.824;4.360;2023-02-15T01:17:50;61.17;;;28.10;;
2390;SDS011;22957;50.824;4.360;2023-02-15T01:20:21;54.20;;;26.03;;
2390;SDS011;22957;50.824;4.360;2023-02-15T01:22:52;47.50;;;25.53;;
2390;SDS011;22957;50.824;4.360;2023-02-15T01:25:19;51.33;;;25.57;;
2390;SDS011;22957;50.824;4.360;2023-02-15T01:27:46;50.13;;;26.00;;
2390;SDS011;22957;50.824;4.360;2023-02-15T01:30:12;47.20;;;24.97;;
2390;SDS011;22957;50.824;4.360;2023-02-15T01:32:39;55.83;;;27.90;;
2390;SDS011;22957;50.824;4.360;2023-02-15T01:35:06;52.63;;;26.60;;
2390;SDS011;22957;50.824;4.360;2023-02-15T01:37:32;50.37;;;27.37;;
2390;SDS011;22957;50.824;4.360;2023-02-15T01:39:59;55.80;;;28.03;;
2390;SDS011;22957;50.824;4.360;2023-02-15T01:42:25;55.10;;;27.43;;
2390;SDS011;22957;50.824;4.360;2023-02-15T01:44:56;53.27;;;26.47;;
2390;SDS011;22957;50.824;4.360;2023-02-15T01:47:32;51.20;;;25.70;;
2390;SDS011;22957;50.824;4.360;2023-02-15T01:50:10;54.70;;;27.43;;
2390;SDS011;22957;50.824;4.360;2023-02-15T01:52:37;52.77;;;26.13;;
2390;SDS011;22957;50.824;4.360;2023-02-15T01:55:16;53.10;;;27.13;;
2390;SDS011;22957;50.824;4.360;2023-02-15T01:57:43;59.87;;;26.53;;
2390;SDS011;22957;50.824;4.360;2023-02-15T02:00:12;54.63;;;26.60;;
2390;SDS011;22957;50.824;4.360;2023-02-15T02:02:40;50.67;;;25.20;;
2390;SDS011;22957;50.824;4.360;2023-02-15T02:05:08;44.53;;;21.30;;
2390;SDS011;22957;50.824;4.360;2023-02-15T02:07:35;43.77;;;23.60;;
2390;SDS011;22957;50.824;4.360;2023-02-15T02:10:06;48.80;;;25.00;;
2390;SDS011;22957;50.824;4.360;2023-02-15T02:12:34;46.27;;;24.53;;
2390;SDS011;22957;50.824;4.360;2023-02-15T02:15:02;53.13;;;25.30;;
2390;SDS011;22957;50.824;4.360;2023-02-15T02:34:21;45.77;;;25.10;;
2390;SDS011;22957;50.824;4.360;2023-02-15T02:39:48;45.97;;;24.83;;
2390;SDS011;22957;50.824;4.360;2023-02-15T02:45:05;47.73;;;23.83;;
2390;SDS011;22957;50.824;4.360;2023-02-15T02:47:43;51.90;;;26.20;;
2390;SDS011;22957;50.824;4.360;2023-02-15T02:50:21;61.30;;;25.30;;
2390;SDS011;22957;50.824;4.360;2023-02-15T02:52:51;39.40;;;22.20;;
2390;SDS011;22957;50.824;4.360;2023-02-15T02:55:23;45.43;;;24.67;;
2390;SDS011;22957;50.824;4.360;2023-02-15T02:58:08;48.70;;;26.27;;
2390;SDS011;22957;50.824;4.360;2023-02-15T03:00:58;50.40;;;23.80;;
2390;SDS011;22957;50.824;4.360;2023-02-15T03:03:37;48.10;;;26.10;;
2390;SDS011;22957;50.824;4.360;2023-02-15T03:06:17;58.87;;;25.60;;
2390;SDS011;22957;50.824;4.360;2023-02-15T03:08:48;49.03;;;27.67;;
2390;SDS011;22957;50.824;4.360;2023-02-15T03:11:19;48.00;;;26.97;;
2390;SDS011;22957;50.824;4.360;2023-02-15T03:13:45;57.07;;;29.47;;
2390;SDS011;22957;50.824;4.360;2023-02-15T03:16:13;54.57;;;26.77;;
2390;SDS011;22957;50.824;4.360;2023-02-15T03:19:04;48.03;;;25.10;;
2390;SDS011;22957;50.824;4.360;2023-02-15T03:24:14;49.53;;;26.23;;
2390;SDS011;22957;50.824;4.360;2023-02-15T03:26:48;45.97;;;24.37;;
2390;SDS011;22957;50.824;4.360;2023-02-15T03:29:17;47.77;;;26.00;;
2390;SDS011;22957;50.824;4.360;2023-02-15T03:31:45;47.90;;;24.50;;
2390;SDS011;22957;50.824;4.360;2023-02-15T03:34:27;41.87;;;22.23;;
2390;SDS011;22957;50.824;4.360;2023-02-15T03:39:53;33.60;;;18.63;;
2390;SDS011;22957;50.824;4.360;2023-02-15T03:43:03;41.30;;;24.20;;
2390;SDS011;22957;50.824;4.360;2023-02-15T03:45:34;41.90;;;23.70;;
2390;SDS011;22957;50.824;4.360;2023-02-15T03:48:03;49.63;;;26.93;;
2390;SDS011;22957;50.824;4.360;2023-02-15T03:50:31;47.30;;;25.87;;
2390;SDS011;22957;50.824;4.360;2023-02-15T03:53:19;50.17;;;26.40;;
2390;SDS011;22957;50.824;4.360;2023-02-15T03:55:47;45.60;;;25.70;;
2390;SDS011;22957;50.824;4.360;2023-02-15T03:58:13;43.30;;;24.40;;
2390;SDS011;22957;50.824;4.360;2023-02-15T04:00:58;43.13;;;21.77;;
2390;SDS011;22957;50.824;4.360;2023-02-15T04:04:18;37.53;;;22.90;;
2390;SDS011;22957;50.824;4.360;2023-02-15T04:06:47;45.30;;;23.40;;
2390;SDS011;22957;50.824;4.360;2023-02-15T04:09:13;42.80;;;24.07;;
2390;SDS011;22957;50.824;4.360;2023-02-15T04:11:57;47.77;;;23.63;;
2390;SDS011;22957;50.824;4.360;2023-02-15T04:14:23;39.43;;;23.00;;
2390;SDS011;22957;50.824;4.360;2023-02-15T04:17:08;42.60;;;22.77;;
2390;SDS011;22957;50.824;4.360;2023-02-15T04:19:34;35.80;;;19.67;;
2390;SDS011;22957;50.824;4.360;2023-02-15T04:22:19;41.87;;;24.60;;
2390;SDS011;22957;50.824;4.360;2023-02-15T04:25:03;48.17;;;23.40;;
2390;SDS011;22957;50.824;4.360;2023-02-15T04:27:39;44.20;;;23.57;;
2390;SDS011;22957;50.824;4.360;2023-02-15T04:30:13;49.60;;;25.90;;
2390;SDS011;22957;50.824;4.360;2023-02-15T04:32:40;33.93;;;18.10;;
2390;SDS011;22957;50.824;4.360;2023-02-15T04:35:06;40.90;;;21.70;;
2390;SDS011;22957;50.824;4.360;2023-02-15T04:37:32;37.23;;;21.50;;
2390;SDS011;22957;50.824;4.360;2023-02-15T04:39:58;32.77;;;17.87;;
2390;SDS011;22957;50.824;4.360;2023-02-15T04:42:24;35.73;;;19.90;;
2390;SDS011;22957;50.824;4.360;2023-02-15T04:44:51;38.97;;;22.30;;
2390;SDS011;22957;50.824;4.360;2023-02-15T04:47:17;35.13;;;20.10;;
2390;SDS011;22957;50.824;4.360;2023-02-15T04:49:42;35.67;;;19.90;;
2390;SDS011;22957;50.824;4.360;2023-02-15T04:52:08;33.07;;;20.03;;
2390;SDS011;22957;50.824;4.360;2023-02-15T04:54:34;38.20;;;19.73;;
2390;SDS011;22957;50.824;4.360;2023-02-15T04:57:00;35.53;;;18.33;;
2390;SDS011;22957;50.824;4.360;2023-02-15T04:59:26;36.67;;;19.83;;
2390;SDS011;22957;50.824;4.360;2023-02-15T05:01:52;36.13;;;22.00;;
2390;SDS011;22957;50.824;4.360;2023-02-15T05:04:17;47.40;;;24.03;;
2390;SDS011;22957;50.824;4.360;2023-02-15T05:06:43;43.97;;;23.50;;
2390;SDS011;22957;50.824;4.360;2023-02-15T05:09:10;43.90;;;24.30;;
2390;SDS011;22957;50.824;4.360;2023-02-15T05:11:37;44.53;;;23.00;;
2390;SDS011;22957;50.824;4.360;2023-02-15T05:14:02;38.80;;;23.00;;
2390;SDS011;22957;50.824;4.360;2023-02-15T05:16:28;37.47;;;21.60;;
2390;SDS011;22957;50.824;4.360;2023-02-15T05:18:54;33.10;;;18.67;;
2390;SDS011;22957;50.824;4.360;2023-02-15T05:21:19;36.87;;;20.13;;
2390;SDS011;22957;50.824;4.360;2023-02-15T05:23:45;42.53;;;24.50;;
2390;SDS011;22957;50.824;4.360;2023-02-15T05:26:11;41.93;;;22.97;;
2390;SDS011;22957;50.824;4.360;2023-02-15T05:29:00;46.73;;;23.97;;
2390;SDS011;22957;50.824;4.360;2023-02-15T05:31:26;37.40;;;22.10;;
2390;SDS011;22957;50.824;4.360;2023-02-15T05:33:52;30.60;;;17.13;;
2390;SDS011;22957;50.824;4.360;2023-02-15T05:36:17;37.87;;;20.83;;
2390;SDS011;22957;50.824;4.360;2023-02-15T05:38:43;41.90;;;24.80;;
2390;SDS011;22957;50.824;4.360;2023-02-15T05:41:09;32.27;;;18.80;;
2390;SDS011;22957;50.824;4.360;2023-02-15T05:43:36;36.23;;;20.03;;
2390;SDS011;22957;50.824;4.360;2023-02-15T05:46:02;40.00;;;22.53;;
2390;SDS011;22957;50.824;4.360;2023-02-15T05:48:28;39.33;;;21.53;;
2390;SDS011;22957;50.824;4.360;2023-02-15T05:50:58;34.60;;;18.10;;
2390;SDS011;22957;50.824;4.360;2023-02-15T05:53:30;40.30;;;22.63;;
2390;SDS011;22957;50.824;4.360;2023-02-15T05:55:56;34.63;;;19.40;;
2390;SDS011;22957;50.824;4.360;2023-02-15T05:58:28;38.27;;;21.27;;
2390;SDS011;22957;50.824;4.360;2023-02-15T06:00:56;38.10;;;21.60;;
2390;SDS011;22957;50.824;4.360;2023-02-15T06:03:22;43.60;;;22.30;;
2390;SDS011;22957;50.824;4.360;2023-02-15T06:05:49;35.20;;;20.20;;
2390;SDS011;22957;50.824;4.360;2023-02-15T06:08:14;37.37;;;21.20;;
2390;SDS011;22957;50.824;4.360;2023-02-15T06:10:40;40.70;;;21.50;;
2390;SDS011;22957;50.824;4.360;2023-02-15T06:13:06;40.03;;;21.87;;
2390;SDS011;22957;50.824;4.360;2023-02-15T06:15:32;35.30;;;20.60;;
2390;SDS011;22957;50.824;4.360;2023-02-15T06:17:58;34.83;;;19.90;;
2390;SDS011;22957;50.824;4.360;2023-02-15T06:20:24;31.20;;;18.30;;
2390;SDS011;22957;50.824;4.360;2023-02-15T06:22:50;43.83;;;23.07;;
2390;SDS011;22957;50.824;4.360;2023-02-15T06:25:15;37.77;;;21.00;;
2390;SDS011;22957;50.824;4.360;2023-02-15T06:27:41;39.40;;;20.40;;
2390;SDS011;22957;50.824;4.360;2023-02-15T06:30:08;40.80;;;22.30;;
2390;SDS011;22957;50.824;4.360;2023-02-15T06:32:34;30.00;;;17.43;;
2390;SDS011;22957;50.824;4.360;2023-02-15T06:35:01;46.43;;;23.93;;
2390;SDS011;22957;50.824;4.360;2023-02-15T06:37:26;41.73;;;23.43;;
2390;SDS011;22957;50.824;4.360;2023-02-15T06:39:52;45.80;;;24.10;;
2390;SDS011;22957;50.824;4.360;2023-02-15T06:42:18;44.00;;;25.27;;
2390;SDS011;22957;50.824;4.360;2023-02-15T06:44:44;43.87;;;22.70;;
2390;SDS011;22957;50.824;4.360;2023-02-15T06:47:10;49.20;;;23.73;;
2390;SDS011;22957;50.824;4.360;2023-02-15T06:49:36;47.43;;;22.10;;
2390;SDS011;22957;50.824;4.360;2023-02-15T06:52:02;34.47;;;17.50;;
2390;SDS011;22957;50.824;4.360;2023-02-15T06:54:28;41.73;;;19.80;;
2390;SDS011;22957;50.824;4.360;2023-02-15T06:56:54;45.73;;;24.00;;
2390;SDS011;22957;50.824;4.360;2023-02-15T06:59:20;44.90;;;23.37;;
2390;SDS011;22957;50.824;4.360;2023-02-15T07:01:46;42.07;;;24.37;;
2390;SDS011;22957;50.824;4.360;2023-02-15T07:04:12;50.50;;;24.10;;
2390;SDS011;22957;50.824;4.360;2023-02-15T07:06:38;39.30;;;21.70;;
2390;SDS011;22957;50.824;4.360;2023-02-15T07:09:04;42.90;;;24.47;;
2390;SDS011;22957;50.824;4.360;2023-02-15T07:11:30;46.50;;;23.40;;
2390;SDS011;22957;50.824;4.360;2023-02-15T07:14:14;50.17;;;23.97;;
2390;SDS011;22957;50.824;4.360;2023-02-15T07:16:40;41.70;;;20.33;;
2390;SDS011;22957;50.824;4.360;2023-02-15T07:19:06;37.27;;;22.33;;
2390;SDS011;22957;50.824;4.360;2023-02-15T07:21:32;41.13;;;22.57;;
2390;SDS011;22957;50.824;4.360;2023-02-15T07:23:59;53.17;;;24.67;;
2390;SDS011;22957;50.824;4.360;2023-02-15T07:26:25;41.03;;;20.30;;
2390;SDS011;22957;50.824;4.360;2023-02-15T07:28:51;44.33;;;24.23;;
2390;SDS011;22957;50.824;4.360;2023-02-15T07:31:17;49.33;;;25.20;;
2390;SDS011;22957;50.824;4.360;2023-02-15T07:33:43;45.60;;;23.87;;
2390;SDS011;22957;50.824;4.360;2023-02-15T07:36:09;40.47;;;22.03;;
2390;SDS011;22957;50.824;4.360;2023-02-15T07:38:37;38.57;;;22.53;;
2390;SDS011;22957;50.824;4.360;2023-02-15T07:41:14;34.00;;;19.77;;
2390;SDS011;22957;50.824;4.360;2023-02-15T07:43:41;41.20;;;23.20;;
2390;SDS011;22957;50.824;4.360;2023-02-15T07:46:10;54.73;;;24.10;;
2390;SDS011;22957;50.824;4.360;2023-02-15T07:48:38;39.03;;;21.20;;
2390;SDS011;22957;50.824;4.360;2023-02-15T07:51:06;42.23;;;24.27;;
2390;SDS011;22957;50.824;4.360;2023-02-15T07:53:33;44.20;;;24.20;;
2390;SDS011;22957;50.824;4.360;2023-02-15T07:55:59;40.53;;;23.40;;
2390;SDS011;22957;50.824;4.360;2023-02-15T07:58:26;42.67;;;22.47;;
2390;SDS011;22957;50.824;4.360;2023-02-15T08:01:12;41.03;;;23.03;;
2390;SDS011;22957;50.824;4.360;2023-02-15T08:03:38;46.23;;;24.80;;
2390;SDS011;22957;50.824;4.360;2023-02-15T08:06:04;47.30;;;24.10;;
2390;SDS011;22957;50.824;4.360;2023-02-15T08:08:30;40.93;;;23.67;;
2390;SDS011;22957;50.824;4.360;2023-02-15T08:10:59;43.77;;;22.47;;
2390;SDS011;22957;50.824;4.360;2023-02-15T08:13:47;47.03;;;26.10;;
2390;SDS011;22957;50.824;4.360;2023-02-15T08:18:53;38.53;;;22.77;;
2390;SDS011;22957;50.824;4.360;2023-02-15T08:21:21;39.23;;;21.00;;
2390;SDS011;22957;50.824;4.360;2023-02-15T08:23:47;38.90;;;22.10;;
2390;SDS011;22957;50.824;4.360;2023-02-15T08:26:13;39.17;;;22.43;;
2390;SDS011;22957;50.824;4.360;2023-02-15T08:28:39;35.00;;;19.07;;
2390;SDS011;22957;50.824;4.360;2023-02-15T08:31:09;37.60;;;20.83;;
2390;SDS011;22957;50.824;4.360;2023-02-15T08:33:38;37.80;;;20.33;;
2390;SDS011;22957;50.824;4.360;2023-02-15T08:36:05;39.30;;;21.10;;
2390;SDS011;22957;50.824;4.360;2023-02-15T08:38:40;39.30;;;22.67;;
2390;SDS011;22957;50.824;4.360;2023-02-15T08:43:42;40.53;;;21.00;;
2390;SDS011;22957;50.824;4.360;2023-02-15T08:46:09;36.57;;;20.30;;
2390;SDS011;22957;50.824;4.360;2023-02-15T08:48:36;34.60;;;20.10;;
2390;SDS011;22957;50.824;4.360;2023-02-15T08:51:09;38.03;;;19.57;;
2390;SDS011;22957;50.824;4.360;2023-02-15T08:53:44;33.70;;;20.67;;
2390;SDS011;22957;50.824;4.360;2023-02-15T08:56:14;37.97;;;21.30;;
2390;SDS011;22957;50.824;4.360;2023-02-15T08:58:40;34.23;;;20.60;;
2390;SDS011;22957;50.824;4.360;2023-02-15T09:01:13;37.73;;;21.63;;
2390;SDS011;22957;50.824;4.360;2023-02-15T09:03:45;29.40;;;18.80;;
2390;SDS011;22957;50.824;4.360;2023-02-15T09:06:12;37.37;;;22.60;;
2390;SDS011;22957;50.824;4.360;2023-02-15T09:08:39;37.43;;;22.87;;
2390;SDS011;22957;50.824;4.360;2023-02-15T09:11:24;36.73;;;22.37;;
2390;SDS011;22957;50.824;4.360;2023-02-15T09:13:53;34.73;;;20.73;;
2390;SDS011;22957;50.824;4.360;2023-02-15T09:16:25;32.23;;;19.27;;
2390;SDS011;22957;50.824;4.360;2023-02-15T09:18:53;32.30;;;18.93;;
2390;SDS011;22957;50.824;4.360;2023-02-15T09:21:20;38.37;;;20.27;;
2390;SDS011;22957;50.824;4.360;2023-02-15T09:23:48;35.70;;;21.13;;
2390;SDS011;22957;50.824;4.360;2023-02-15T09:26:15;34.37;;;19.10;;
2390;SDS011;22957;50.824;4.360;2023-02-15T09:28:43;37.87;;;20.23;;
2390;SDS011;22957;50.824;4.360;2023-02-15T09:33:37;29.43;;;18.60;;
2390;SDS011;22957;50.824;4.360;2023-02-15T09:36:05;35.17;;;21.30;;
2390;SDS011;22957;50.824;4.360;2023-02-15T09:38:38;35.03;;;21.80;;
2390;SDS011;22957;50.824;4.360;2023-02-15T09:43:48;36.33;;;20.80;;
2390;SDS011;22957;50.824;4.360;2023-02-15T09:46:22;37.80;;;22.63;;
2390;SDS011;22957;50.824;4.360;2023-02-15T09:49:52;35.83;;;20.17;;
2390;SDS011;22957;50.824;4.360;2023-02-15T09:57:10;36.47;;;21.83;;
2390;SDS011;22957;50.824;4.360;2023-02-15T10:00:16;36.90;;;19.50;;
2390;SDS011;22957;50.824;4.360;2023-02-15T10:05:58;32.97;;;19.37;;
2390;SDS011;22957;50.824;4.360;2023-02-15T10:11:39;38.13;;;21.40;;
2390;SDS011;22957;50.824;4.360;2023-02-15T10:20:07;42.77;;;20.67;;
2390;SDS011;22957;50.824;4.360;2023-02-15T10:27:48;38.70;;;23.20;;
2390;SDS011;22957;50.824;4.360;2023-02-15T10:30:15;42.00;;;23.80;;
2390;SDS011;22957;50.824;4.360;2023-02-15T10:33:01;42.87;;;23.33;;
2390;SDS011;22957;50.824;4.360;2023-02-15T10:44:05;40.17;;;22.70;;
2390;SDS011;22957;50.824;4.360;2023-02-15T10:52:46;46.43;;;26.03;;
2390;SDS011;22957;50.824;4.360;2023-02-15T10:58:22;38.03;;;23.37;;
2390;SDS011;22957;50.824;4.360;2023-02-15T11:06:19;36.43;;;23.73;;
2390;SDS011;22957;50.824;4.360;2023-02-15T11:09:08;35.57;;;22.47;;
2390;SDS011;22957;50.824;4.360;2023-02-15T11:11:43;39.13;;;22.73;;
2390;SDS011;22957;50.824;4.360;2023-02-15T11:14:16;45.57;;;25.10;;
2390;SDS011;22957;50.824;4.360;2023-02-15T11:16:53;36.67;;;20.93;;
2390;SDS011;22957;50.824;4.360;2023-02-15T11:19:24;34.57;;;20.43;;
2390;SDS011;22957;50.824;4.360;2023-02-15T11:22:02;40.33;;;23.30;;
2390;SDS011;22957;50.824;4.360;2023-02-15T11:24:31;40.10;;;21.87;;
2390;SDS011;22957;50.824;4.360;2023-02-15T11:27:05;42.67;;;23.50;;
2390;SDS011;22957;50.824;4.360;2023-02-15T11:32:33;43.50;;;25.40;;
2390;SDS011;22957;50.824;4.360;2023-02-15T11:37:39;40.10;;;24.10;;
2390;SDS011;22957;50.824;4.360;2023-02-15T11:40:21;37.33;;;22.43;;
2390;SDS011;22957;50.824;4.360;2023-02-15T11:43:16;37.10;;;24.00;;
2390;SDS011;22957;50.824;4.360;2023-02-15T11:45:48;42.13;;;25.87;;
2390;SDS011;22957;50.824;4.360;2023-02-15T11:48:14;44.50;;;22.70;;
2390;SDS011;22957;50.824;4.360;2023-02-15T11:50:41;40.27;;;24.47;;
2390;SDS011;22957;50.824;4.360;2023-02-15T11:53:18;40.73;;;24.70;;
2390;SDS011;22957;50.824;4.360;2023-02-15T11:55:50;39.23;;;25.20;;
2390;SDS011;22957;50.824;4.360;2023-02-15T11:58:22;47.63;;;25.97;;
2390;SDS011;22957;50.824;4.360;2023-02-15T12:00:54;44.23;;;24.33;;
2390;SDS011;22957;50.824;4.360;2023-02-15T12:06:16;44.00;;;26.93;;
2390;SDS011;22957;50.824;4.360;2023-02-15T12:09:01;44.73;;;26.00;;
2390;SDS011;22957;50.824;4.360;2023-02-15T12:11:38;37.10;;;23.07;;
2390;SDS011;22957;50.824;4.360;2023-02-15T12:14:06;49.43;;;29.07;;
2390;SDS011;22957;50.824;4.360;2023-02-15T12:16:40;44.07;;;26.50;;
2390;SDS011;22957;50.824;4.360;2023-02-15T12:19:23;45.13;;;28.83;;
2390;SDS011;22957;50.824;4.360;2023-02-15T12:21:51;43.50;;;24.13;;
2390;SDS011;22957;50.824;4.360;2023-02-15T12:24:22;46.77;;;24.43;;
2390;SDS011;22957;50.824;4.360;2023-02-15T12:27:19;44.53;;;24.27;;
2390;SDS011;22957;50.824;4.360;2023-02-15T12:29:59;40.70;;;26.23;;
2390;SDS011;22957;50.824;4.360;2023-02-15T12:32:46;49.47;;;27.73;;
2390;SDS011;22957;50.824;4.360;2023-02-15T12:37:55;48.87;;;29.30;;
2390;SDS011;22957;50.824;4.360;2023-02-15T12:40:27;43.03;;;26.80;;
2390;SDS011;22957;50.824;4.360;2023-02-15T12:42:54;48.87;;;29.33;;
2390;SDS011;22957;50.824;4.360;2023-02-15T12:45:25;45.97;;;25.70;;
2390;SDS011;22957;50.824;4.360;2023-02-15T12:48:35;48.20;;;27.93;;
2390;SDS011;22957;50.824;4.360;2023-02-15T12:50:46;43.10;;;28.00;;
2390;SDS011;22957;50.824;4.360;2023-02-15T12:55:49;41.53;;;27.13;;
2390;SDS011;22957;50.824;4.360;2023-02-15T12:58:26;45.37;;;28.63;;
2390;SDS011;22957;50.824;4.360;2023-02-15T13:03:33;44.53;;;27.80;;
2390;SDS011;22957;50.824;4.360;2023-02-15T13:06:00;46.73;;;27.30;;
2390;SDS011;22957;50.824;4.360;2023-02-15T13:08:33;48.70;;;28.77;;
2390;SDS011;22957;50.824;4.360;2023-02-15T13:11:11;44.13;;;27.10;;
2390;SDS011;22957;50.824;4.360;2023-02-15T13:13:50;39.63;;;25.10;;
2390;SDS011;22957;50.824;4.360;2023-02-15T13:16:30;43.47;;;27.03;;
2390;SDS011;22957;50.824;4.360;2023-02-15T13:18:58;49.40;;;31.23;;
2390;SDS011;22957;50.824;4.360;2023-02-15T13:21:40;60.50;;;35.43;;
2390;SDS011;22957;50.824;4.360;2023-02-15T13:24:15;56.80;;;33.60;;
2390;SDS011;22957;50.824;4.360;2023-02-15T13:26:45;53.00;;;31.37;;
2390;SDS011;22957;50.824;4.360;2023-02-15T13:29:17;48.20;;;30.73;;
2390;SDS011;22957;50.824;4.360;2023-02-15T13:31:47;44.57;;;27.37;;
2390;SDS011;22957;50.824;4.360;2023-02-15T13:34:16;39.83;;;25.30;;
2390;SDS011;22957;50.824;4.360;2023-02-15T13:37:21;44.63;;;27.13;;
2390;SDS011;22957;50.824;4.360;2023-02-15T13:51:00;50.53;;;29.80;;
2390;SDS011;22957;50.824;4.360;2023-02-15T14:09:50;58.57;;;34.20;;
2390;SDS011;22957;50.824;4.360;2023-02-15T14:23:36;57.97;;;32.80;;
2390;SDS011;22957;50.824;4.360;2023-02-15T14:26:19;50.07;;;29.63;;
2390;SDS011;22957;50.824;4.360;2023-02-15T14:31:54;54.60;;;30.90;;
2390;SDS011;22957;50.824;4.360;2023-02-15T14:37:01;51.53;;;28.97;;
2390;SDS011;22957;50.824;4.360;2023-02-15T14:42:33;57.37;;;33.50;;
2390;SDS011;22957;50.824;4.360;2023-02-15T14:45:06;57.80;;;31.03;;
2390;SDS011;22957;50.824;4.360;2023-02-15T14:47:42;53.90;;;32.10;;
2390;SDS011;22957;50.824;4.360;2023-02-15T14:50:38;48.80;;;30.23;;
2390;SDS011;22957;50.824;4.360;2023-02-15T14:53:17;57.63;;;32.43;;
2390;SDS011;22957;50.824;4.360;2023-02-15T14:58:36;54.27;;;33.40;;
2390;SDS011;22957;50.824;4.360;2023-02-15T15:01:06;57.00;;;33.43;;
2390;SDS011;22957;50.824;4.360;2023-02-15T15:03:34;51.83;;;29.97;;
2390;SDS011;22957;50.824;4.360;2023-02-15T15:06:02;51.80;;;31.73;;
2390;SDS011;22957;50.824;4.360;2023-02-15T15:08:38;62.83;;;35.90;;
2390;SDS011;22957;50.824;4.360;2023-02-15T15:13:59;50.07;;;30.90;;
2390;SDS011;22957;50.824;4.360;2023-02-15T15:16:46;64.97;;;40.40;;
2390;SDS011;22957;50.824;4.360;2023-02-15T15:19:56;64.50;;;37.50;;
2390;SDS011;22957;50.824;4.360;2023-02-15T15:22:20;59.40;;;36.40;;
2390;SDS011;22957;50.824;4.360;2023-02-15T15:24:52;54.47;;;31.80;;
2390;SDS011;22957;50.824;4.360;2023-02-15T15:47:23;64.37;;;35.40;;
2390;SDS011;22957;50.824;4.360;2023-02-15T15:50:18;54.40;;;32.67;;
2390;SDS011;22957;50.824;4.360;2023-02-15T15:52:55;58.70;;;35.47;;
2390;SDS011;22957;50.824;4.360;2023-02-15T15:55:25;63.20;;;33.43;;
2390;SDS011;22957;50.824;4.360;2023-02-15T15:57:53;67.63;;;35.90;;
2390;SDS011;22957;50.824;4.360;2023-02-15T16:03:24;57.63;;;31.53;;
2390;SDS011;22957;50.824;4.360;2023-02-15T16:05:51;60.20;;;33.03;;
2390;SDS011;22957;50.824;4.360;2023-02-15T16:08:27;65.23;;;35.10;;
2390;SDS011;22957;50.824;4.360;2023-02-15T16:10:57;61.67;;;37.40;;
2390;SDS011;22957;50.824;4.360;2023-02-15T16:13:24;56.77;;;30.17;;
2390;SDS011;22957;50.824;4.360;2023-02-15T16:15:52;56.50;;;32.27;;
2390;SDS011;22957;50.824;4.360;2023-02-15T16:18:21;54.17;;;29.93;;
2390;SDS011;22957;50.824;4.360;2023-02-15T16:20:54;52.60;;;31.13;;
2390;SDS011;22957;50.824;4.360;2023-02-15T16:28:52;59.90;;;31.20;;
2390;SDS011;22957;50.824;4.360;2023-02-15T16:31:19;65.03;;;34.87;;
2390;SDS011;22957;50.824;4.360;2023-02-15T16:33:52;58.53;;;31.97;;
2390;SDS011;22957;50.824;4.360;2023-02-15T16:36:29;64.07;;;29.10;;
2390;SDS011;22957;50.824;4.360;2023-02-15T16:41:27;63.20;;;36.30;;
2390;SDS011;22957;50.824;4.360;2023-02-15T16:43:54;58.00;;;31.50;;
2390;SDS011;22957;50.824;4.360;2023-02-15T16:46:33;52.97;;;31.50;;
2390;SDS011;22957;50.824;4.360;2023-02-15T16:49:04;58.73;;;34.57;;
2390;SDS011;22957;50.824;4.360;2023-02-15T16:51:37;53.83;;;29.20;;
2390;SDS011;22957;50.824;4.360;2023-02-15T16:54:07;48.40;;;30.27;;
2390;SDS011;22957;50.824;4.360;2023-02-15T16:56:44;52.53;;;30.13;;
2390;SDS011;22957;50.824;4.360;2023-02-15T17:01:56;58.87;;;34.60;;
2390;SDS011;22957;50.824;4.360;2023-02-15T17:07:14;69.13;;;36.63;;
2390;SDS011;22957;50.824;4.360;2023-02-15T17:09:54;56.93;;;30.00;;
2390;SDS011;22957;50.824;4.360;2023-02-15T17:17:58;58.03;;;31.87;;
2390;SDS011;22957;50.824;4.360;2023-02-15T17:20:37;48.90;;;28.33;;
2390;SDS011;22957;50.824;4.360;2023-02-15T17:23:13;65.20;;;32.03;;
2390;SDS011;22957;50.824;4.360;2023-02-15T17:25:46;63.47;;;34.20;;
2390;SDS011;22957;50.824;4.360;2023-02-15T17:28:16;59.90;;;32.70;;
2390;SDS011;22957;50.824;4.360;2023-02-15T17:30:44;66.03;;;35.37;;
2390;SDS011;22957;50.824;4.360;2023-02-15T17:38:30;58.10;;;31.07;;
2390;SDS011;22957;50.824;4.360;2023-02-15T17:40:57;62.93;;;36.40;;
2390;SDS011;22957;50.824;4.360;2023-02-15T17:43:25;62.70;;;33.63;;
2390;SDS011;22957;50.824;4.360;2023-02-15T17:45:51;57.70;;;31.83;;
2390;SDS011;22957;50.824;4.360;2023-02-15T17:48:22;56.13;;;33.13;;
2390;SDS011;22957;50.824;4.360;2023-02-15T17:50:56;59.63;;;32.47;;
2390;SDS011;22957;50.824;4.360;2023-02-15T17:53:26;45.43;;;27.90;;
2390;SDS011;22957;50.824;4.360;2023-02-15T17:55:52;54.87;;;32.00;;
2390;SDS011;22957;50.824;4.360;2023-02-15T17:58:18;62.57;;;34.93;;
2390;SDS011;22957;50.824;4.360;2023-02-15T18:00:45;54.17;;;30.20;;
2390;SDS011;22957;50.824;4.360;2023-02-15T18:06:24;56.47;;;30.87;;
2390;SDS011;22957;50.824;4.360;2023-02-15T18:09:13;49.33;;;27.30;;
2390;SDS011;22957;50.824;4.360;2023-02-15T18:11:59;54.13;;;29.70;;
2390;SDS011;22957;50.824;4.360;2023-02-15T18:14:25;52.90;;;32.77;;
2390;SDS011;22957;50.824;4.360;2023-02-15T18:16:51;53.00;;;28.53;;
2390;SDS011;22957;50.824;4.360;2023-02-15T18:19:17;55.60;;;31.10;;
2390;SDS011;22957;50.824;4.360;2023-02-15T18:21:48;46.70;;;28.47;;